Piranhas, Brazil
Current Conditions -  °F | °C
As of 3:00 PM on Friday 24 Oct 2014 (Local Time) from SBGO Reporting Station
Thunderstorm Thunderstorm  
Wind Chill: 81°   Ceiling: 4000
Heat Index: 81°   Visibility: 6mi
Dew Point: 59°   Wind: 18mph
Humidity: 48%   Direction: 110°ESE
Pressure: 29.94"   Gusts: NA
Location:  16.43°S, 51.82°W
Report Text: SBGO 241700Z 11016KT 9999 TS VCSH BKN040 FEW045CB 27/15 Q1014
Loading
Personal Weather Stations






























Interactive Weather Map
Tropical Storm Tracking
New forecast layout! Learn more

10-Day Weather Forecast

Advertisements
Track Severe Weather on mobile